Time;durP1;ratioP1;P1;durP2;ratioP2;P2;SDS_P1;SDS_P2;PMS_P1;PMS_P2;Temp;Humidity;BMP_temperature;BMP_pressure;BME280_temperature;BME280_humidity;BME280_pressure;Samples;Min_cycle;Max_cycle;Signal;HPM_P1;HPM_P2
2023/09/15 00:00:41;;;;;;;17.67;17.07;;;17.50;99.90;;;;;;5052212;28;20200;-64
2023/09/15 00:03:10;;;;;;;16.17;15.67;;;17.40;99.90;;;;;;5051795;28;20204;-65
2023/09/15 00:05:38;;;;;;;15.50;15.00;;;17.30;99.90;;;;;;5052128;28;20204;-65
2023/09/15 00:08:06;;;;;;;15.23;14.73;;;17.30;99.90;;;;;;5051805;28;20236;-65
2023/09/15 00:10:34;;;;;;;16.27;15.67;;;17.30;99.90;;;;;;5052140;28;20204;-64
2023/09/15 00:13:02;;;;;;;17.47;16.87;;;17.30;99.90;;;;;;5054543;28;20203;-64
2023/09/15 00:15:29;;;;;;;16.73;16.13;;;17.30;99.90;;;;;;5063374;28;20214;-65
2023/09/15 00:17:56;;;;;;;17.53;16.93;;;17.30;99.90;;;;;;5056394;28;20314;-64
2023/09/15 00:20:25;;;;;;;16.50;15.90;;;17.30;99.90;;;;;;5051865;28;20196;-63
2023/09/15 00:22:53;;;;;;;16.67;16.07;;;17.30;99.90;;;;;;5054412;28;20230;-65
2023/09/15 00:25:21;;;;;;;16.97;16.37;;;17.20;99.90;;;;;;5057988;28;20196;-65
2023/09/15 00:27:50;;;;;;;17.27;16.67;;;17.20;99.90;;;;;;5056037;28;20219;-64
2023/09/15 00:30:17;;;;;;;16.23;15.70;;;17.10;99.90;;;;;;5055872;28;20216;-65
2023/09/15 00:32:45;;;;;;;17.13;16.53;;;17.10;99.90;;;;;;5055180;28;20283;-64
2023/09/15 00:35:12;;;;;;;16.00;15.50;;;17.00;99.90;;;;;;5050672;28;20246;-64
2023/09/15 00:37:40;;;;;;;16.80;16.20;;;17.00;99.90;;;;;;5057529;28;20227;-63
2023/09/15 00:40:09;;;;;;;17.33;16.73;;;17.10;99.90;;;;;;5060839;28;20246;-65
2023/09/15 00:42:37;;;;;;;16.30;15.70;;;17.00;99.90;;;;;;5054271;28;20223;-64
2023/09/15 00:45:05;;;;;;;16.83;16.23;;;16.90;99.90;;;;;;5055114;28;20195;-66
2023/09/15 00:47:34;;;;;;;16.47;15.87;;;16.90;99.90;;;;;;5054999;28;20658;-66
2023/09/15 00:50:01;;;;;;;17.27;16.67;;;16.90;99.90;;;;;;5055336;28;21497;-64
2023/09/15 00:52:28;;;;;;;15.70;15.20;;;16.80;99.90;;;;;;5060709;28;20291;-67
2023/09/15 00:54:57;;;;;;;18.07;17.47;;;16.90;99.90;;;;;;5056650;28;20206;-65
2023/09/15 00:57:26;;;;;;;17.03;16.43;;;16.80;99.90;;;;;;5061019;28;20203;-65
2023/09/15 00:59:53;;;;;;;18.00;17.40;;;16.80;99.90;;;;;;5059913;28;20207;-65
2023/09/15 01:02:21;;;;;;;19.03;18.37;;;16.70;99.90;;;;;;5062154;28;20206;-64
2023/09/15 01:04:48;;;;;;;17.90;17.30;;;16.60;99.90;;;;;;5064344;28;20221;-64
2023/09/15 01:07:15;;;;;;;18.13;17.43;;;16.60;99.90;;;;;;5063287;28;20206;-65
2023/09/15 01:09:42;;;;;;;17.33;16.63;;;16.50;99.90;;;;;;5069079;28;20233;-64
2023/09/15 01:12:10;;;;;;;18.77;18.07;;;16.50;99.90;;;;;;5066955;28;20195;-64
2023/09/15 01:14:37;;;;;;;18.20;17.60;;;16.50;99.90;;;;;;5053411;28;20231;-65
2023/09/15 01:17:09;;;;;;;23.63;22.63;;;16.40;99.90;;;;;;5054475;28;20203;-64
2023/09/15 01:19:54;;;;;;;20.77;20.07;;;16.30;99.90;;;;;;5053158;28;20223;-64
2023/09/15 01:22:46;;;;;;;19.03;18.37;;;16.20;99.90;;;;;;5053269;28;20662;-64
2023/09/15 01:25:46;;;;;;;19.83;19.13;;;16.10;99.90;;;;;;5052381;28;20212;-66
2023/09/15 01:28:38;;;;;;;22.87;22.07;;;16.10;99.90;;;;;;5052883;28;20772;-64
2023/09/15 01:31:08;;;;;;;16.30;15.70;;;16.00;99.90;;;;;;5054405;28;20234;-64
2023/09/15 01:33:36;;;;;;;20.20;19.50;;;16.00;99.90;;;;;;5052396;28;20545;-64
2023/09/15 01:36:03;;;;;;;19.60;18.90;;;16.10;99.90;;;;;;5053615;28;20790;-64
2023/09/15 01:38:31;;;;;;;16.73;16.13;;;16.00;99.90;;;;;;5052861;28;20705;-65
2023/09/15 01:40:58;;;;;;;19.93;19.23;;;16.00;99.90;;;;;;5053912;28;20212;-64
2023/09/15 01:43:25;;;;;;;16.83;16.23;;;16.00;99.90;;;;;;5052395;28;20853;-64
2023/09/15 01:45:51;;;;;;;20.93;20.20;;;16.00;99.90;;;;;;5053464;28;20203;-64
2023/09/15 01:48:21;;;;;;;20.63;19.90;;;15.90;99.90;;;;;;5052814;28;20223;-64
2023/09/15 01:50:48;;;;;;;21.90;21.10;;;15.80;99.90;;;;;;5059345;28;20237;-64
2023/09/15 01:53:15;;;;;;;26.63;25.70;;;15.80;99.90;;;;;;5069594;28;20195;-66
2023/09/15 01:55:43;;;;;;;24.67;23.77;;;15.70;99.90;;;;;;5069839;28;20217;-64
2023/09/15 01:58:10;;;;;;;29.73;28.70;;;15.70;99.90;;;;;;5069787;28;20237;-64
2023/09/15 02:00:38;;;;;;;28.23;27.23;;;15.60;99.90;;;;;;5069987;28;20210;-64
2023/09/15 02:03:06;;;;;;;29.20;28.17;;;15.60;99.90;;;;;;5069307;28;20835;-64
2023/09/15 02:05:34;;;;;;;28.97;27.93;;;15.70;99.90;;;;;;5069859;28;20249;-64
2023/09/15 02:08:01;;;;;;;27.10;26.17;;;15.50;99.90;;;;;;5069517;28;20231;-65
2023/09/15 02:10:28;;;;;;;25.07;24.20;;;15.50;99.90;;;;;;5069756;28;20295;-64
2023/09/15 02:12:55;;;;;;;39.33;37.87;;;15.60;99.90;;;;;;5069707;28;20648;-64
2023/09/15 02:15:22;;;;;;;25.90;24.93;;;15.50;99.90;;;;;;5069622;28;20213;-64
2023/09/15 02:17:50;;;;;;;29.03;28.00;;;15.50;99.90;;;;;;5069599;28;20227;-65
2023/09/15 02:20:18;;;;;;;32.20;31.10;;;15.50;99.90;;;;;;5069520;28;20203;-65
2023/09/15 02:22:47;;;;;;;35.00;33.80;;;15.50;99.90;;;;;;5069934;28;20209;-65
2023/09/15 02:25:13;;;;;;;35.10;33.87;;;15.40;99.90;;;;;;5068794;28;20205;-63
2023/09/15 02:27:40;;;;;;;32.70;31.57;;;15.40;99.90;;;;;;5069385;28;20310;-64
2023/09/15 02:30:09;;;;;;;33.07;31.90;;;15.40;99.90;;;;;;5069474;28;20233;-64
2023/09/15 02:32:35;;;;;;;20.80;20.07;;;15.40;99.90;;;;;;5069815;28;20217;-63
2023/09/15 02:35:02;;;;;;;27.63;26.63;;;15.40;99.90;;;;;;5069420;28;20568;-65
2023/09/15 02:37:29;;;;;;;26.43;25.50;;;15.50;99.90;;;;;;5069387;28;20206;-65
2023/09/15 02:39:57;;;;;;;31.93;30.83;;;15.50;99.90;;;;;;5069259;28;20558;-65
2023/09/15 02:42:24;;;;;;;30.90;29.83;;;15.60;99.90;;;;;;5069472;28;20215;-65
2023/09/15 02:44:51;;;;;;;31.60;30.47;;;15.60;99.90;;;;;;5068867;28;20199;-64
2023/09/15 02:47:18;;;;;;;26.53;25.60;;;15.60;99.90;;;;;;5066021;28;20196;-63
2023/09/15 02:49:45;;;;;;;32.73;31.60;;;15.60;99.90;;;;;;5073190;28;20227;-64
2023/09/15 02:52:12;;;;;;;28.87;27.87;;;15.60;99.90;;;;;;5072047;28;20195;-65
2023/09/15 02:54:39;;;;;;;28.73;27.73;;;15.60;99.90;;;;;;5073134;28;20195;-64
2023/09/15 02:57:07;;;;;;;27.70;26.73;;;15.60;99.90;;;;;;5072838;28;20720;-64
2023/09/15 02:59:34;;;;;;;34.60;33.37;;;15.60;99.90;;;;;;5072814;28;20225;-64
2023/09/15 03:02:01;;;;;;;28.97;27.93;;;15.60;99.90;;;;;;5072672;28;20211;-65
2023/09/15 03:04:27;;;;;;;28.67;27.70;;;15.60;99.90;;;;;;5072489;28;20696;-64
2023/09/15 03:06:54;;;;;;;31.00;29.93;;;15.50;99.90;;;;;;5072500;28;20211;-64
2023/09/15 03:09:21;;;;;;;24.70;23.80;;;15.50;99.90;;;;;;5072552;28;20327;-64
2023/09/15 03:11:48;;;;;;;35.53;34.30;;;15.40;99.90;;;;;;5072607;28;20526;-64
2023/09/15 03:14:18;;;;;;;41.37;39.90;;;15.50;99.90;;;;;;5072277;28;20204;-64
2023/09/15 03:16:45;;;;;;;27.90;26.93;;;15.50;99.90;;;;;;5072882;28;20214;-64
2023/09/15 03:19:12;;;;;;;32.00;30.87;;;15.50;99.90;;;;;;5072064;28;20227;-64
2023/09/15 03:21:39;;;;;;;28.57;27.57;;;15.50;99.90;;;;;;5072412;28;20630;-66
2023/09/15 03:24:07;;;;;;;32.73;31.60;;;15.60;99.90;;;;;;5072231;28;20203;-65
2023/09/15 03:26:35;;;;;;;34.87;33.63;;;15.60;99.90;;;;;;5072666;28;20598;-65
2023/09/15 03:29:02;;;;;;;34.87;33.67;;;15.60;99.90;;;;;;5072486;28;20247;-64
2023/09/15 03:31:30;;;;;;;38.87;37.47;;;15.50;99.90;;;;;;5073542;28;20226;-64
2023/09/15 03:33:57;;;;;;;29.93;28.90;;;15.50;99.90;;;;;;5071903;28;20566;-64
2023/09/15 03:36:26;;;;;;;34.13;32.93;;;15.50;99.90;;;;;;5072314;28;20201;-64
2023/09/15 03:38:52;;;;;;;33.73;32.53;;;15.60;99.90;;;;;;5071975;28;20309;-64
2023/09/15 03:41:19;;;;;;;38.17;36.83;;;15.60;99.90;;;;;;5065648;28;20203;-64
2023/09/15 03:43:46;;;;;;;38.17;36.80;;;15.50;99.90;;;;;;5071928;28;20203;-65
2023/09/15 03:46:13;;;;;;;44.73;43.13;;;15.50;99.90;;;;;;5073606;28;20207;-65
2023/09/15 03:48:41;;;;;;;39.67;38.27;;;15.40;99.90;;;;;;5073657;28;20587;-65
2023/09/15 03:51:09;;;;;;;34.23;33.00;;;15.50;99.90;;;;;;5072729;28;20223;-65
2023/09/15 03:53:36;;;;;;;33.97;32.73;;;15.30;99.90;;;;;;5072160;28;20206;-65
2023/09/15 03:56:03;;;;;;;25.30;24.40;;;15.30;99.90;;;;;;5071716;28;20207;-64
2023/09/15 03:58:30;;;;;;;34.53;33.30;;;15.30;99.90;;;;;;5070971;28;20653;-65
2023/09/15 04:00:57;;;;;;;27.30;26.33;;;15.20;99.90;;;;;;5055504;28;20200;-65
2023/09/15 04:03:24;;;;;;;31.87;30.73;;;15.20;99.90;;;;;;5052505;28;20206;-65
2023/09/15 04:05:52;;;;;;;23.97;23.10;;;15.20;99.90;;;;;;5052422;28;20219;-64
2023/09/15 04:08:19;;;;;;;31.27;30.20;;;15.10;99.90;;;;;;5053327;28;20716;-64
2023/09/15 04:10:46;;;;;;;43.63;42.07;;;15.10;99.90;;;;;;5052045;28;20716;-65
2023/09/15 04:13:14;;;;;;;31.03;29.93;;;15.00;99.90;;;;;;5051936;28;20204;-66
2023/09/15 04:15:41;;;;;;;39.80;38.33;;;14.80;99.90;;;;;;5052011;28;20204;-66
2023/09/15 04:18:09;;;;;;;38.37;37.03;;;14.80;99.90;;;;;;5052345;28;20230;-65
2023/09/15 04:20:37;;;;;;;26.90;25.90;;;14.80;99.90;;;;;;5051722;28;20663;-64
2023/09/15 04:23:05;;;;;;;31.53;30.43;;;14.80;99.90;;;;;;5051822;28;20208;-64
2023/09/15 04:25:32;;;;;;;28.70;27.70;;;14.90;99.90;;;;;;5051521;28;20200;-64
2023/09/15 04:27:59;;;;;;;26.13;25.20;;;15.00;99.90;;;;;;5053709;28;20232;-65
2023/09/15 04:30:26;;;;;;;25.43;24.57;;;15.00;99.90;;;;;;5061372;28;20311;-64
2023/09/15 04:32:52;;;;;;;17.73;17.07;;;15.00;99.90;;;;;;5051470;28;20210;-65
2023/09/15 04:35:19;;;;;;;33.97;32.73;;;15.20;99.90;;;;;;5052609;28;20306;-65
2023/09/15 04:37:46;;;;;;;24.93;24.07;;;15.10;99.90;;;;;;5051466;28;20601;-65
2023/09/15 04:40:14;;;;;;;26.60;25.67;;;15.00;99.90;;;;;;5051512;28;20208;-64
2023/09/15 04:42:41;;;;;;;23.77;22.93;;;15.00;99.90;;;;;;5051007;28;20313;-64
2023/09/15 04:45:08;;;;;;;23.80;23.00;;;15.00;99.90;;;;;;5050923;28;20204;-64
2023/09/15 04:47:37;;;;;;;18.80;18.17;;;14.90;99.90;;;;;;5051249;28;20200;-65
2023/09/15 04:50:04;;;;;;;21.30;20.53;;;15.10;99.90;;;;;;5050761;28;20220;-64
2023/09/15 04:52:31;;;;;;;17.00;16.33;;;15.00;99.90;;;;;;5050857;28;20677;-64
2023/09/15 04:54:58;;;;;;;32.27;31.10;;;15.00;99.90;;;;;;5050415;28;20204;-64
2023/09/15 04:57:26;;;;;;;34.07;32.87;;;15.00;99.90;;;;;;5050737;28;20204;-64
2023/09/15 04:59:54;;;;;;;34.50;33.30;;;14.90;99.90;;;;;;5050657;28;20208;-64
2023/09/15 05:02:22;;;;;;;30.03;28.97;;;15.00;99.90;;;;;;5050807;28;20295;-64
2023/09/15 05:04:50;;;;;;;31.07;29.97;;;14.90;99.90;;;;;;5050180;28;20232;-64
2023/09/15 05:07:17;;;;;;;31.60;30.50;;;14.90;99.90;;;;;;5050271;28;20208;-63
2023/09/15 05:09:45;;;;;;;34.10;32.90;;;14.90;99.90;;;;;;5057555;28;20652;-63
2023/09/15 05:12:12;;;;;;;34.90;33.63;;;14.90;99.90;;;;;;5065989;28;20208;-64
2023/09/15 05:14:40;;;;;;;34.87;33.63;;;14.90;99.90;;;;;;5067456;28;20736;-64
2023/09/15 05:17:07;;;;;;;37.37;36.00;;;15.00;99.90;;;;;;5065521;28;20208;-63
2023/09/15 05:19:34;;;;;;;37.53;36.17;;;15.00;99.90;;;;;;5066696;28;20221;-62
2023/09/15 05:22:00;;;;;;;26.47;25.47;;;14.90;99.90;;;;;;5064835;28;20203;-64
2023/09/15 05:24:27;;;;;;;36.87;35.53;;;15.00;99.90;;;;;;5066902;28;20258;-63
2023/09/15 05:26:54;;;;;;;20.47;19.73;;;15.00;99.90;;;;;;5064424;28;20324;-63
2023/09/15 05:29:21;;;;;;;28.53;27.50;;;15.00;99.90;;;;;;5066524;28;20708;-64
2023/09/15 05:31:49;;;;;;;26.27;25.33;;;15.00;99.90;;;;;;5065230;28;20312;-64
2023/09/15 05:34:16;;;;;;;27.33;26.37;;;15.10;99.90;;;;;;5066118;28;20662;-64
2023/09/15 05:36:43;;;;;;;43.97;42.40;;;15.10;99.90;;;;;;5068118;28;20225;-64
2023/09/15 05:39:10;;;;;;;17.47;16.83;;;15.10;99.90;;;;;;5067779;28;20282;-64
2023/09/15 05:41:37;;;;;;;26.07;25.17;;;15.10;99.90;;;;;;5067176;28;20199;-63
2023/09/15 05:44:03;;;;;;;16.07;15.47;;;15.10;99.90;;;;;;5064266;28;20203;-63
2023/09/15 05:46:30;;;;;;;22.23;21.40;;;15.10;99.90;;;;;;5068011;28;20198;-62
2023/09/15 05:48:59;;;;;;;26.73;25.80;;;15.20;99.90;;;;;;5066117;28;20250;-64
2023/09/15 05:51:25;;;;;;;22.63;21.83;;;15.30;99.90;;;;;;5068526;28;20219;-64
2023/09/15 05:53:52;;;;;;;20.63;19.93;;;15.30;99.90;;;;;;5064162;28;20684;-64
2023/09/15 05:56:19;;;;;;;24.80;23.90;;;15.30;99.90;;;;;;5067447;28;20712;-63
2023/09/15 05:58:46;;;;;;;17.63;17.03;;;15.40;99.90;;;;;;5065484;28;20235;-63
2023/09/15 06:01:13;;;;;;;16.30;15.70;;;15.30;99.90;;;;;;5067397;28;20211;-62
2023/09/15 06:03:39;;;;;;;17.10;16.50;;;15.40;99.90;;;;;;5065057;28;20579;-62
2023/09/15 06:06:08;;;;;;;19.33;18.57;;;15.50;99.90;;;;;;5063788;28;20214;-63
2023/09/15 06:08:34;;;;;;;16.37;15.60;;;15.50;99.90;;;;;;5063597;28;20693;-63
2023/09/15 06:11:03;;;;;;;33.60;32.40;;;15.60;99.90;;;;;;5062286;28;20239;-63
2023/09/15 06:13:29;;;;;;;26.57;25.63;;;15.60;99.90;;;;;;5064989;28;20661;-63
2023/09/15 06:15:56;;;;;;;25.77;24.87;;;15.60;99.90;;;;;;5062808;28;20214;-63
2023/09/15 06:18:23;;;;;;;17.30;16.63;;;15.60;99.90;;;;;;5064908;28;20219;-64
2023/09/15 06:20:51;;;;;;;30.80;29.70;;;15.60;99.90;;;;;;5066817;28;20199;-63
2023/09/15 06:23:19;;;;;;;19.93;19.23;;;15.60;99.90;;;;;;5071918;28;20600;-63
2023/09/15 06:25:46;;;;;;;31.43;30.30;;;15.60;99.90;;;;;;5068882;28;20203;-64
2023/09/15 06:28:13;;;;;;;17.80;17.17;;;15.50;99.90;;;;;;5070496;28;20261;-63
2023/09/15 06:30:40;;;;;;;16.70;16.10;;;15.40;99.90;;;;;;5068997;28;20712;-63
2023/09/15 06:33:07;;;;;;;16.00;15.40;;;15.50;99.90;;;;;;5070341;28;20207;-63
2023/09/15 06:35:34;;;;;;;15.37;14.87;;;15.40;99.90;;;;;;5070212;28;20230;-63
2023/09/15 06:38:02;;;;;;;18.20;17.50;;;15.40;99.90;;;;;;5069514;28;20254;-63
2023/09/15 06:40:30;;;;;;;15.43;14.83;;;15.60;99.90;;;;;;5069397;28;20199;-63
2023/09/15 06:42:57;;;;;;;16.40;15.70;;;15.70;99.90;;;;;;5067036;28;20287;-63
2023/09/15 06:45:24;;;;;;;16.70;16.10;;;15.80;99.90;;;;;;5071119;28;20209;-63
2023/09/15 06:47:51;;;;;;;15.93;15.33;;;15.70;99.90;;;;;;5075620;28;20299;-62
2023/09/15 06:50:18;;;;;;;18.10;17.47;;;15.80;99.90;;;;;;5067769;28;20199;-64
2023/09/15 06:52:45;;;;;;;17.67;17.07;;;15.80;99.90;;;;;;5077252;28;20208;-61
2023/09/15 06:55:11;;;;;;;16.07;15.47;;;15.90;99.90;;;;;;5070056;28;20204;-64
2023/09/15 06:57:39;;;;;;;17.23;16.63;;;16.00;99.90;;;;;;5068586;28;20524;-64
2023/09/15 07:00:09;;;;;;;18.30;17.60;;;16.00;99.90;;;;;;5067523;28;20204;-62
2023/09/15 07:02:36;;;;;;;17.80;17.17;;;16.00;99.90;;;;;;5068162;28;20271;-64
2023/09/15 07:05:02;;;;;;;21.63;20.80;;;16.00;99.90;;;;;;5065378;28;20210;-64
2023/09/15 07:07:29;;;;;;;18.20;17.58;;;16.10;99.90;;;;;;5067864;28;20487;-63
2023/09/15 07:09:56;;;;;;;18.80;18.10;;;16.10;99.90;;;;;;5065609;28;20199;-64
2023/09/15 07:12:23;;;;;;;19.80;18.87;;;16.20;99.90;;;;;;5067685;28;20701;-63
2023/09/15 07:14:51;;;;;;;18.73;18.07;;;16.20;99.90;;;;;;5066215;28;20238;-63
2023/09/15 07:17:18;;;;;;;16.57;15.97;;;16.20;99.90;;;;;;5066795;28;20203;-64
2023/09/15 07:19:46;;;;;;;29.98;28.83;;;16.20;99.90;;;;;;5066882;28;20231;-64
2023/09/15 07:22:13;;;;;;;23.97;23.07;;;16.20;99.90;;;;;;5065986;28;20227;-64
2023/09/15 07:24:41;;;;;;;19.03;18.33;;;16.30;99.90;;;;;;5067246;28;20290;-62
2023/09/15 07:27:08;;;;;;;17.60;16.90;;;16.30;99.90;;;;;;5065336;28;20204;-64
2023/09/15 07:29:35;;;;;;;18.43;17.77;;;16.40;99.90;;;;;;5067475;28;20237;-62
2023/09/15 07:32:04;;;;;;;17.73;17.10;;;16.40;99.90;;;;;;5064063;28;20689;-65
2023/09/15 07:34:31;;;;;;;18.47;17.77;;;16.50;99.90;;;;;;5066319;28;20575;-63
2023/09/15 07:36:59;;;;;;;18.00;17.33;;;16.70;99.90;;;;;;5064696;28;20366;-64
2023/09/15 07:39:26;;;;;;;18.20;17.50;;;16.80;99.90;;;;;;5061478;28;20626;-63
2023/09/15 07:41:53;;;;;;;19.50;18.80;;;16.90;99.90;;;;;;5064843;28;20199;-62
2023/09/15 07:44:19;;;;;;;18.90;18.20;;;16.90;99.90;;;;;;5065843;28;20207;-62
2023/09/15 07:46:46;;;;;;;17.23;16.63;;;17.10;99.90;;;;;;5069006;28;20207;-63
2023/09/15 07:49:14;;;;;;;17.93;17.23;;;17.20;99.90;;;;;;5064597;28;20242;-63
2023/09/15 07:51:41;;;;;;;17.83;17.23;;;17.20;99.90;;;;;;5066450;28;20219;-62
2023/09/15 07:54:08;;;;;;;17.73;17.13;;;17.30;99.90;;;;;;5063607;28;20772;-64
2023/09/15 07:56:36;;;;;;;19.97;19.20;;;17.40;99.90;;;;;;5066635;28;20200;-66
2023/09/15 07:59:03;;;;;;;17.40;16.80;;;17.50;99.90;;;;;;5063429;28;20259;-64
2023/09/15 08:01:30;;;;;;;15.77;15.17;;;17.50;99.90;;;;;;5066032;28;20606;-62
2023/09/15 08:03:57;;;;;;;16.47;15.87;;;17.70;99.90;;;;;;5063811;28;20581;-63
2023/09/15 08:06:26;;;;;;;16.53;15.93;;;17.80;99.90;;;;;;5065866;28;20195;-65
2023/09/15 08:08:53;;;;;;;14.33;13.83;;;17.90;99.90;;;;;;5063865;28;20219;-63
2023/09/15 08:11:20;;;;;;;14.40;13.90;;;18.10;99.90;;;;;;5065128;28;20318;-64
2023/09/15 08:13:47;;;;;;;14.77;14.27;;;18.10;99.90;;;;;;5065007;28;20218;-64
2023/09/15 08:16:14;;;;;;;15.33;14.83;;;18.10;99.90;;;;;;5064599;28;20208;-63
2023/09/15 08:18:41;;;;;;;16.07;15.47;;;18.30;99.90;;;;;;5065304;28;20215;-63
2023/09/15 08:21:07;;;;;;;15.60;15.00;;;18.30;99.90;;;;;;5063046;28;20203;-63
2023/09/15 08:23:36;;;;;;;14.05;13.55;;;18.50;99.90;;;;;;5068210;28;20209;-64
2023/09/15 08:26:02;;;;;;;14.88;14.27;;;18.60;99.90;;;;;;5062683;28;20299;-62
2023/09/15 08:28:29;;;;;;;14.30;13.80;;;18.70;99.90;;;;;;5069422;28;20253;-65
2023/09/15 08:30:56;;;;;;;13.30;12.80;;;18.90;99.90;;;;;;5071080;28;20203;-64
2023/09/15 08:33:23;;;;;;;14.67;14.17;;;19.10;99.90;;;;;;5064481;28;20207;-62
2023/09/15 08:35:51;;;;;;;13.77;13.27;;;19.20;99.90;;;;;;5063516;28;20213;-63
2023/09/15 08:38:18;;;;;;;14.80;14.30;;;19.20;99.90;;;;;;5063663;28;20228;-63
2023/09/15 08:40:51;;;;;;;14.47;13.97;;;19.20;99.90;;;;;;5065037;28;20217;-64
2023/09/15 08:43:19;;;;;;;15.47;14.97;;;19.30;99.90;;;;;;5064506;28;20552;-63
2023/09/15 08:45:48;;;;;;;15.20;14.60;;;19.40;99.90;;;;;;5068572;28;20206;-63
2023/09/15 08:48:22;;;;;;;17.15;16.48;;;19.40;99.90;;;;;;5062596;28;20318;-62
2023/09/15 08:50:50;;;;;;;20.43;19.57;;;19.30;99.90;;;;;;5066688;28;20207;-64
2023/09/15 08:53:18;;;;;;;15.10;14.57;;;19.40;99.90;;;;;;5071838;28;20237;-64
2023/09/15 08:55:45;;;;;;;17.07;16.37;;;19.30;99.90;;;;;;5066197;28;20238;-62
2023/09/15 08:58:14;;;;;;;15.00;14.50;;;19.60;99.90;;;;;;5063863;28;20235;-64
2023/09/15 09:00:42;;;;;;;14.70;14.20;;;19.70;99.90;;;;;;5069397;28;20294;-64
2023/09/15 09:03:12;;;;;;;16.07;15.47;;;19.90;99.90;;;;;;5076569;28;20214;-62
2023/09/15 09:05:39;;;;;;;16.50;15.90;;;20.00;99.90;;;;;;5070361;28;20222;-64
2023/09/15 09:08:07;;;;;;;17.10;16.50;;;20.20;99.90;;;;;;5068880;28;20220;-64
2023/09/15 09:10:33;;;;;;;16.23;15.63;;;20.40;99.90;;;;;;5070128;28;20267;-63
2023/09/15 09:13:00;;;;;;;16.97;16.37;;;20.50;99.90;;;;;;5065478;28;20226;-64
2023/09/15 09:15:33;;;;;;;18.17;17.47;;;20.60;99.90;;;;;;5066786;28;20203;-65
2023/09/15 09:18:00;;;;;;;17.07;16.47;;;20.70;99.90;;;;;;5061844;28;20233;-64
2023/09/15 09:20:27;;;;;;;17.30;16.70;;;20.80;99.90;;;;;;5063841;28;20264;-63
2023/09/15 09:22:55;;;;;;;18.40;17.70;;;20.90;99.90;;;;;;5065958;28;20203;-64
2023/09/15 09:25:29;;;;;;;22.20;21.40;;;21.00;99.90;;;;;;5062624;28;20686;-64
2023/09/15 09:27:56;;;;;;;18.07;17.40;;;21.10;99.90;;;;;;5062192;28;20222;-63
2023/09/15 09:30:26;;;;;;;18.38;17.77;;;21.10;99.90;;;;;;5062541;28;20199;-63
2023/09/15 09:32:54;;;;;;;17.67;17.07;;;21.20;99.90;;;;;;5066838;28;20219;-64
2023/09/15 09:35:21;;;;;;;19.80;19.10;;;21.30;99.90;;;;;;5062530;28;20629;-62
2023/09/15 09:37:48;;;;;;;21.57;20.80;;;21.50;99.90;;;;;;5062640;28;20225;-65
2023/09/15 09:40:17;;;;;;;19.48;18.77;;;21.50;99.90;;;;;;5061501;28;20580;-64
2023/09/15 09:42:44;;;;;;;19.35;18.65;;;21.60;99.90;;;;;;5063130;28;20733;-63
2023/09/15 09:45:11;;;;;;;21.07;20.37;;;21.70;99.90;;;;;;5060391;28;20220;-63
2023/09/15 09:47:38;;;;;;;21.02;20.33;;;21.80;99.90;;;;;;5063648;28;20225;-63
2023/09/15 09:50:09;;;;;;;21.77;20.97;;;22.00;99.90;;;;;;5059784;28;20604;-63
2023/09/15 09:52:36;;;;;;;22.53;21.73;;;22.10;99.90;;;;;;5059239;28;20705;-63
2023/09/15 09:55:05;;;;;;;22.87;22.07;;;22.20;99.90;;;;;;5061250;28;20206;-64
2023/09/15 09:57:32;;;;;;;22.90;22.10;;;22.50;99.90;;;;;;5070451;28;20203;-64
2023/09/15 09:59:59;;;;;;;30.07;28.90;;;22.60;99.90;;;;;;5065860;28;20203;-65
2023/09/15 10:02:27;;;;;;;23.80;22.92;;;22.30;99.90;;;;;;5066893;28;20204;-64
2023/09/15 10:04:54;;;;;;;23.73;22.92;;;22.20;99.90;;;;;;5065952;28;20646;-61
2023/09/15 10:07:23;;;;;;;25.65;24.75;;;22.40;99.90;;;;;;5065284;28;20280;-65
2023/09/15 10:09:51;;;;;;;21.70;20.92;;;22.50;99.90;;;;;;5066418;28;20199;-63
2023/09/15 10:12:18;;;;;;;21.43;20.73;;;22.70;99.90;;;;;;5071142;28;20233;-64
2023/09/15 10:14:45;;;;;;;22.60;21.80;;;22.80;99.90;;;;;;5071581;28;20207;-64
2023/09/15 10:17:12;;;;;;;28.88;27.77;;;22.90;99.90;;;;;;5068242;28;20199;-65
2023/09/15 10:19:42;;;;;;;20.65;19.95;;;22.90;99.90;;;;;;5072661;28;20751;-65
2023/09/15 10:22:09;;;;;;;21.70;20.90;;;23.00;99.90;;;;;;5065284;28;20261;-65
2023/09/15 10:24:37;;;;;;;21.60;20.85;;;23.10;99.90;;;;;;5070657;28;20199;-64
2023/09/15 10:27:04;;;;;;;21.90;21.15;;;23.20;99.90;;;;;;5063455;28;20204;-64
2023/09/15 10:29:32;;;;;;;19.63;18.92;;;23.30;99.90;;;;;;5066356;28;20250;-64
2023/09/15 10:32:04;;;;;;;16.50;15.90;;;23.30;99.90;;;;;;5064230;28;20230;-63
2023/09/15 10:34:32;;;;;;;19.50;18.80;;;23.40;99.90;;;;;;5061376;28;20210;-64
2023/09/15 10:37:01;;;;;;;18.57;17.97;;;23.50;99.90;;;;;;5063909;28;20210;-63
2023/09/15 10:39:37;;;;;;;19.77;19.07;;;23.40;99.90;;;;;;5065605;28;20620;-64
2023/09/15 10:42:09;;;;;;;53.70;51.00;;;23.50;99.90;;;;;;5066931;28;20583;-63
2023/09/15 10:44:36;;;;;;;19.52;18.85;;;23.50;99.90;;;;;;5068339;28;20205;-63
2023/09/15 10:47:03;;;;;;;17.33;16.73;;;23.40;99.90;;;;;;5068655;28;20210;-64
2023/09/15 10:49:30;;;;;;;17.65;17.05;;;23.40;99.90;;;;;;5076028;28;20280;-63
2023/09/15 10:51:59;;;;;;;18.00;17.40;;;23.60;99.90;;;;;;5075710;28;20596;-62
2023/09/15 10:54:30;;;;;;;16.73;16.13;;;23.80;99.90;;;;;;5074759;28;20208;-63
2023/09/15 10:57:00;;;;;;;20.23;19.53;;;23.80;99.90;;;;;;5079053;28;20199;-63
2023/09/15 10:59:27;;;;;;;19.38;18.67;;;23.90;99.90;;;;;;5075122;28;20242;-63
2023/09/15 11:01:55;;;;;;;19.02;18.33;;;23.90;99.90;;;;;;5068656;28;20215;-63
2023/09/15 11:04:22;;;;;;;17.67;17.07;;;23.90;99.90;;;;;;5065699;28;20275;-62
2023/09/15 11:06:51;;;;;;;18.88;18.17;;;24.00;99.90;;;;;;5080743;28;20262;-63
2023/09/15 11:09:19;;;;;;;17.67;17.08;;;24.20;99.90;;;;;;5076425;28;20223;-64
2023/09/15 11:11:50;;;;;;;18.33;17.65;;;24.30;99.90;;;;;;5077175;28;20659;-62
2023/09/15 11:14:19;;;;;;;58.40;54.75;;;24.40;99.90;;;;;;5080006;28;20666;-64
2023/09/15 11:16:48;;;;;;;18.52;17.88;;;24.50;99.90;;;;;;5076903;28;20207;-66
2023/09/15 11:19:16;;;;;;;17.13;16.52;;;24.40;99.90;;;;;;5069897;28;20250;-63
2023/09/15 11:21:43;;;;;;;17.20;16.52;;;24.30;99.90;;;;;;5076001;28;20687;-63
2023/09/15 11:24:10;;;;;;;17.70;17.00;;;24.30;99.90;;;;;;5075285;28;20302;-62
2023/09/15 11:26:44;;;;;;;16.35;15.75;;;24.40;99.90;;;;;;5071679;28;20321;-64
2023/09/15 11:29:10;;;;;;;19.08;18.38;;;24.50;99.90;;;;;;5072232;28;20318;-64
2023/09/15 11:31:39;;;;;;;23.92;22.83;;;24.60;99.90;;;;;;5074991;28;20207;-66
2023/09/15 11:34:08;;;;;;;21.40;20.63;;;24.40;99.90;;;;;;5074931;28;20205;-64
2023/09/15 11:36:36;;;;;;;30.25;29.00;;;24.20;99.90;;;;;;5070741;28;20199;-63
2023/09/15 11:39:07;;;;;;;18.48;17.83;;;24.00;99.90;;;;;;5063345;28;20224;-62
2023/09/15 11:41:35;;;;;;;16.58;15.98;;;24.10;99.90;;;;;;5068147;28;20253;-62
2023/09/15 11:44:06;;;;;;;18.13;17.52;;;24.20;99.90;;;;;;5069772;28;20809;-63
2023/09/15 11:46:34;;;;;;;18.63;17.93;;;24.40;99.90;;;;;;5068848;28;20238;-63
2023/09/15 11:49:03;;;;;;;19.43;18.63;;;24.50;99.90;;;;;;5075981;28;21093;-64
2023/09/15 11:51:31;;;;;;;17.10;16.50;;;24.50;99.90;;;;;;5075375;28;20211;-64
2023/09/15 11:53:59;;;;;;;17.77;17.17;;;24.60;99.90;;;;;;5072593;28;20640;-63
2023/09/15 11:56:26;;;;;;;18.02;17.23;;;24.60;99.90;;;;;;5072949;28;20215;-64
2023/09/15 11:58:53;;;;;;;18.75;18.05;;;24.80;99.90;;;;;;5067618;28;20246;-64
2023/09/15 12:01:21;;;;;;;17.77;17.17;;;24.90;99.90;;;;;;5070571;28;20208;-62
2023/09/15 12:03:49;;;;;;;20.38;19.67;;;24.80;99.90;;;;;;5070898;28;20203;-63
2023/09/15 12:06:18;;;;;;;20.20;19.50;;;24.90;99.90;;;;;;5073373;28;20665;-63
2023/09/15 12:08:47;;;;;;;25.02;24.13;;;25.10;99.90;;;;;;5074368;28;20238;-62
2023/09/15 12:11:14;;;;;;;21.40;20.65;;;25.20;99.90;;;;;;5074354;28;20219;-64
2023/09/15 12:13:41;;;;;;;22.65;21.85;;;25.20;99.90;;;;;;5067023;28;20226;-64
2023/09/15 12:16:16;;;;;;;26.73;25.73;;;25.40;99.90;;;;;;5071022;28;20290;-63
2023/09/15 12:18:46;;;;;;;32.55;31.35;;;25.50;99.90;;;;;;5066229;28;20227;-63
2023/09/15 12:21:13;;;;;;;31.00;29.90;;;25.50;99.90;;;;;;5074641;28;20213;-63
2023/09/15 12:23:41;;;;;;;28.55;27.55;;;25.50;99.90;;;;;;5078389;28;20278;-67
2023/09/15 12:26:09;;;;;;;29.70;28.65;;;25.40;99.90;;;;;;5078429;28;20262;-63
2023/09/15 12:28:37;;;;;;;25.73;24.83;;;25.60;99.90;;;;;;5078470;28;20259;-63
2023/09/15 12:31:04;;;;;;;31.20;30.10;;;25.70;99.90;;;;;;5077144;28;20249;-64